Time;durP1;ratioP1;P1;durP2;ratioP2;P2;SDS_P1;SDS_P2;PMS_P1;PMS_P2;Temp;Humidity;BMP_temperature;BMP_pressure;BME280_temperature;BME280_humidity;BME280_pressure;Samples;Min_cycle;Max_cycle;Signal;HPM_P1;HPM_P2
2021/01/13 00:00:29;;;;;;;13.60;7.63;;;3.30;99.90;;;;;;5031093;28;20186;-73
2021/01/13 00:02:55;;;;;;;8.07;6.30;;;3.30;99.90;;;;;;5032877;28;20591;-73
2021/01/13 00:05:20;;;;;;;13.83;7.60;;;3.30;99.90;;;;;;5032990;28;20485;-73
2021/01/13 00:07:50;;;;;;;14.20;6.67;;;3.40;99.90;;;;;;5033083;28;20207;-73
2021/01/13 00:10:16;;;;;;;12.13;7.00;;;3.30;99.90;;;;;;5032847;28;20191;-73
2021/01/13 00:12:42;;;;;;;7.87;6.43;;;3.30;99.90;;;;;;5033147;28;20448;-73
2021/01/13 00:15:09;;;;;;;12.37;6.50;;;3.40;99.90;;;;;;5033049;28;20910;-73
2021/01/13 00:17:35;;;;;;;11.03;5.93;;;3.40;99.90;;;;;;5032987;28;20196;-73
2021/01/13 00:20:01;;;;;;;15.03;7.23;;;3.40;99.90;;;;;;5032780;28;20537;-73
2021/01/13 00:22:27;;;;;;;10.63;6.77;;;3.40;99.90;;;;;;5032934;28;20766;-73
2021/01/13 00:24:52;;;;;;;9.37;7.07;;;3.50;99.90;;;;;;5031202;28;20446;-72
2021/01/13 00:27:21;;;;;;;11.27;7.03;;;3.50;99.90;;;;;;5031236;28;20217;-73
2021/01/13 00:29:48;;;;;;;11.10;7.53;;;3.50;99.90;;;;;;5064823;28;20176;-73
2021/01/13 00:32:14;;;;;;;7.30;6.20;;;3.60;99.90;;;;;;5033153;28;20737;-73
2021/01/13 00:34:39;;;;;;;13.53;6.73;;;3.60;99.90;;;;;;5032526;28;20425;-73
2021/01/13 00:37:07;;;;;;;10.70;6.57;;;3.60;99.90;;;;;;5032206;28;20202;-74
2021/01/13 00:39:32;;;;;;;12.70;7.53;;;3.50;99.90;;;;;;5031706;28;20174;-73
2021/01/13 00:41:58;;;;;;;11.13;6.70;;;3.60;99.90;;;;;;5032488;28;20479;-72
2021/01/13 00:44:23;;;;;;;11.30;7.50;;;3.50;99.90;;;;;;5032671;28;20186;-72
2021/01/13 00:46:49;;;;;;;9.10;6.33;;;3.60;99.90;;;;;;5064331;28;20295;-72
2021/01/13 00:49:14;;;;;;;11.07;6.20;;;3.60;99.90;;;;;;5031543;28;20181;-72
2021/01/13 00:51:42;;;;;;;8.97;7.07;;;3.60;99.90;;;;;;5032532;28;20509;-73
2021/01/13 00:54:12;;;;;;;9.93;6.60;;;3.60;99.90;;;;;;5032651;28;20581;-73
2021/01/13 00:56:46;;;;;;;8.43;6.40;;;3.50;99.90;;;;;;5032612;28;20844;-73
2021/01/13 00:59:13;;;;;;;9.77;6.90;;;3.60;99.90;;;;;;5032181;28;20440;-72
2021/01/13 01:01:40;;;;;;;10.40;6.33;;;3.50;99.90;;;;;;5032772;28;20468;-72
2021/01/13 01:04:08;;;;;;;11.57;7.03;;;3.50;99.90;;;;;;5032386;28;20467;-72
2021/01/13 01:06:34;;;;;;;12.30;6.63;;;3.50;99.90;;;;;;5032328;28;20612;-72
2021/01/13 01:08:59;;;;;;;12.00;7.10;;;3.50;99.90;;;;;;5032099;28;20534;-72
2021/01/13 01:11:29;;;;;;;11.53;6.87;;;3.50;99.90;;;;;;5032540;28;20253;-72
2021/01/13 01:13:55;;;;;;;10.90;7.30;;;3.50;99.90;;;;;;5033917;28;20211;-71
2021/01/13 01:16:21;;;;;;;13.63;8.23;;;3.50;99.90;;;;;;5036131;28;20426;-72
2021/01/13 01:18:46;;;;;;;8.67;7.00;;;3.40;99.90;;;;;;5036287;28;20406;-72
2021/01/13 01:21:12;;;;;;;15.37;7.57;;;3.40;99.90;;;;;;5036230;28;20501;-72
2021/01/13 01:23:38;;;;;;;16.07;8.17;;;3.40;99.90;;;;;;5036035;28;20192;-72
2021/01/13 01:26:05;;;;;;;12.80;7.80;;;3.30;99.90;;;;;;5036427;28;20209;-72
2021/01/13 01:28:30;;;;;;;12.00;8.13;;;3.30;99.90;;;;;;5036157;28;20394;-72
2021/01/13 01:30:56;;;;;;;11.90;7.83;;;3.30;99.90;;;;;;5036034;28;20467;-72
2021/01/13 01:33:22;;;;;;;9.50;8.00;;;3.30;99.90;;;;;;5035842;28;20236;-72
2021/01/13 01:35:48;;;;;;;11.00;7.30;;;3.20;99.90;;;;;;5035672;28;20226;-72
2021/01/13 01:38:13;;;;;;;12.07;7.67;;;3.10;99.90;;;;;;5036615;28;20402;-72
2021/01/13 01:40:39;;;;;;;10.53;7.57;;;3.20;99.90;;;;;;5038234;28;20187;-72
2021/01/13 01:43:04;;;;;;;11.37;6.13;;;3.20;99.90;;;;;;5036457;28;20171;-72
2021/01/13 01:45:31;;;;;;;15.33;8.10;;;3.10;99.90;;;;;;5035704;28;20200;-74
2021/01/13 01:48:02;;;;;;;12.20;7.60;;;3.20;99.90;;;;;;5035751;28;20195;-72
2021/01/13 01:50:34;;;;;;;11.53;8.20;;;3.20;99.90;;;;;;5036229;28;20853;-72
2021/01/13 01:53:22;;;;;;;10.40;7.80;;;3.20;99.90;;;;;;5035806;28;20410;-72
2021/01/13 01:56:34;;;;;;;20.90;9.67;;;3.20;99.90;;;;;;5035948;28;20509;-72
2021/01/13 01:59:09;;;;;;;12.33;8.50;;;3.10;99.90;;;;;;5032651;28;20774;-73
2021/01/13 02:01:44;;;;;;;13.07;8.53;;;3.20;99.90;;;;;;5035398;28;20401;-72
2021/01/13 02:04:31;;;;;;;11.70;9.93;;;3.20;99.90;;;;;;5036202;28;20461;-73
2021/01/13 02:07:19;;;;;;;11.97;9.23;;;3.20;99.90;;;;;;5036610;28;20454;-73
2021/01/13 02:09:45;;;;;;;13.40;9.20;;;3.20;99.90;;;;;;5036129;28;20414;-73
2021/01/13 02:12:12;;;;;;;17.73;9.57;;;3.20;99.90;;;;;;5035391;28;20406;-73
2021/01/13 02:14:41;;;;;;;11.60;8.70;;;3.20;99.90;;;;;;5034015;28;20169;-72
2021/01/13 02:17:08;;;;;;;11.83;9.23;;;3.30;99.90;;;;;;5035298;28;20429;-73
2021/01/13 02:20:07;;;;;;;11.10;9.13;;;3.30;99.90;;;;;;5035326;28;20432;-72
2021/01/13 02:22:51;;;;;;;12.60;8.90;;;3.30;99.90;;;;;;5033981;28;20537;-72
2021/01/13 02:25:37;;;;;;;17.70;10.00;;;3.30;99.90;;;;;;5033545;28;20421;-73
2021/01/13 02:28:17;;;;;;;13.63;8.83;;;3.20;99.90;;;;;;5035349;28;20484;-72
2021/01/13 02:30:56;;;;;;;10.90;9.10;;;3.30;99.90;;;;;;5035577;28;20477;-73
2021/01/13 02:33:30;;;;;;;18.63;9.57;;;3.30;99.90;;;;;;5035266;28;20780;-72
2021/01/13 02:36:19;;;;;;;17.13;9.90;;;3.20;99.90;;;;;;5033218;28;20430;-72
2021/01/13 02:38:52;;;;;;;14.33;10.27;;;3.20;99.90;;;;;;5037174;28;20394;-72
2021/01/13 02:41:19;;;;;;;12.20;9.43;;;3.20;99.90;;;;;;5036578;28;20916;-72
2021/01/13 02:43:59;;;;;;;13.17;9.13;;;3.20;99.90;;;;;;5034848;28;20408;-73
2021/01/13 02:46:55;;;;;;;10.60;8.67;;;3.20;99.90;;;;;;5037448;28;20461;-72
2021/01/13 02:49:37;;;;;;;9.27;8.30;;;3.20;99.90;;;;;;5041955;28;20402;-72
2021/01/13 02:52:19;;;;;;;17.97;9.80;;;3.20;99.90;;;;;;5036465;28;20441;-72
2021/01/13 02:54:52;;;;;;;14.60;8.53;;;3.20;99.90;;;;;;5034584;28;20402;-72
2021/01/13 02:57:20;;;;;;;16.03;8.73;;;3.10;99.90;;;;;;5034512;28;20801;-72
2021/01/13 02:59:49;;;;;;;17.27;8.87;;;3.20;99.90;;;;;;5034706;28;20888;-72
2021/01/13 03:02:15;;;;;;;15.97;8.70;;;3.20;99.90;;;;;;5034293;28;20929;-72
2021/01/13 03:04:42;;;;;;;11.53;7.50;;;3.10;99.90;;;;;;5034141;28;20813;-72
2021/01/13 03:07:13;;;;;;;13.07;8.10;;;3.10;99.90;;;;;;5033661;28;20968;-72
2021/01/13 03:09:46;;;;;;;15.67;8.60;;;3.20;99.90;;;;;;5034146;28;20433;-72
2021/01/13 03:12:31;;;;;;;10.00;8.70;;;3.10;99.90;;;;;;5034099;28;20420;-72
2021/01/13 03:14:58;;;;;;;10.63;7.93;;;3.10;99.90;;;;;;5034029;28;20406;-73
2021/01/13 03:17:29;;;;;;;12.73;9.60;;;3.00;99.90;;;;;;5033581;28;20552;-73
2021/01/13 03:20:07;;;;;;;14.77;8.27;;;2.90;99.90;;;;;;5034187;28;20412;-72
2021/01/13 03:22:41;;;;;;;15.40;8.53;;;2.90;99.90;;;;;;5034055;28;20397;-73
2021/01/13 03:25:10;;;;;;;11.90;9.00;;;2.70;99.90;;;;;;5033654;28;20443;-72
2021/01/13 03:27:41;;;;;;;17.30;9.00;;;2.80;99.90;;;;;;5033609;28;20501;-73
2021/01/13 03:30:07;;;;;;;11.13;8.97;;;2.80;99.90;;;;;;5034224;28;20783;-72
2021/01/13 03:33:05;;;;;;;16.87;9.50;;;2.80;99.90;;;;;;5033635;28;20501;-73
2021/01/13 03:36:08;;;;;;;16.17;9.70;;;2.80;99.90;;;;;;5041655;28;20454;-73
2021/01/13 03:39:01;;;;;;;15.73;9.93;;;2.80;99.90;;;;;;5032488;28;20496;-73
2021/01/13 03:41:34;;;;;;;16.80;10.43;;;2.80;99.90;;;;;;5034165;28;20409;-72
2021/01/13 03:44:08;;;;;;;16.30;9.20;;;2.80;99.90;;;;;;5033152;28;20975;-72
2021/01/13 03:46:33;;;;;;;15.63;9.43;;;2.80;99.90;;;;;;5033988;28;20960;-72
2021/01/13 03:49:03;;;;;;;13.37;10.27;;;3.00;99.90;;;;;;5033570;28;20424;-72
2021/01/13 03:51:49;;;;;;;15.30;11.57;;;2.90;99.90;;;;;;5033901;28;20181;-72
2021/01/13 03:54:16;;;;;;;14.13;10.93;;;2.90;99.90;;;;;;5032266;28;20512;-73
2021/01/13 03:57:00;;;;;;;13.30;11.00;;;3.00;99.90;;;;;;5033296;28;20430;-73
2021/01/13 03:59:51;;;;;;;14.47;11.70;;;3.00;99.90;;;;;;5033285;28;20803;-73
2021/01/13 04:02:20;;;;;;;15.23;11.20;;;3.10;99.90;;;;;;5030099;28;20433;-72
2021/01/13 04:04:55;;;;;;;20.37;12.43;;;3.20;99.90;;;;;;5033080;28;20949;-73
2021/01/13 04:07:24;;;;;;;16.43;11.10;;;3.20;99.90;;;;;;5033412;28;20947;-73
2021/01/13 04:09:52;;;;;;;18.77;11.77;;;3.20;99.90;;;;;;5033251;28;20517;-72
2021/01/13 04:12:21;;;;;;;17.20;12.80;;;3.20;99.90;;;;;;5033655;28;20488;-73
2021/01/13 04:14:56;;;;;;;16.40;13.60;;;3.20;99.90;;;;;;5033302;28;20800;-72
2021/01/13 04:17:24;;;;;;;15.73;12.90;;;3.30;99.90;;;;;;5033824;28;20444;-72
2021/01/13 04:19:50;;;;;;;19.10;12.93;;;3.20;99.90;;;;;;5033305;28;20406;-73
2021/01/13 04:22:17;;;;;;;18.03;12.23;;;3.20;99.90;;;;;;5033189;28;20452;-72
2021/01/13 04:24:44;;;;;;;19.43;13.03;;;3.20;99.90;;;;;;5033028;28;20737;-73
2021/01/13 04:27:15;;;;;;;18.90;13.47;;;3.10;99.90;;;;;;5033378;28;20457;-72
2021/01/13 04:29:41;;;;;;;22.67;15.07;;;3.00;99.90;;;;;;5033245;28;20416;-71
2021/01/13 04:32:07;;;;;;;18.77;14.00;;;3.10;99.90;;;;;;5032989;28;20792;-72
2021/01/13 04:34:33;;;;;;;18.10;13.70;;;3.10;99.90;;;;;;5032892;28;20429;-72
2021/01/13 04:37:02;;;;;;;17.07;13.80;;;3.20;99.90;;;;;;5032583;28;20426;-72
2021/01/13 04:39:29;;;;;;;23.40;14.63;;;3.20;99.90;;;;;;5033214;28;20423;-73
2021/01/13 04:42:10;;;;;;;19.70;14.57;;;3.30;99.90;;;;;;5033068;28;20921;-72
2021/01/13 04:44:55;;;;;;;17.30;13.80;;;3.30;99.90;;;;;;5033102;28;20916;-72
2021/01/13 04:47:40;;;;;;;20.47;13.50;;;3.30;99.90;;;;;;5033144;28;20535;-73
2021/01/13 04:50:11;;;;;;;18.00;14.27;;;3.20;99.90;;;;;;5036776;28;20880;-73
2021/01/13 04:52:42;;;;;;;24.90;16.43;;;3.20;99.90;;;;;;5037022;28;20425;-73
2021/01/13 04:55:24;;;;;;;18.83;14.50;;;3.20;99.90;;;;;;5037041;28;20769;-73
2021/01/13 04:58:20;;;;;;;17.77;13.70;;;3.20;99.90;;;;;;5037944;28;20492;-72
2021/01/13 05:01:06;;;;;;;19.93;14.40;;;3.30;99.90;;;;;;5037671;28;20411;-72
2021/01/13 05:04:04;;;;;;;21.80;14.87;;;3.40;99.90;;;;;;5031798;28;20976;-72
2021/01/13 05:07:04;;;;;;;18.03;14.90;;;3.50;99.90;;;;;;5003064;28;20526;-72
2021/01/13 05:09:43;;;;;;;19.03;13.90;;;3.40;99.90;;;;;;5036773;28;20811;-72
2021/01/13 05:12:11;;;;;;;23.60;14.50;;;3.40;99.90;;;;;;5036583;28;20421;-72
2021/01/13 05:14:43;;;;;;;23.83;15.77;;;3.50;99.90;;;;;;5036708;28;20543;-72
2021/01/13 05:17:31;;;;;;;18.57;13.87;;;3.50;99.90;;;;;;5036617;28;20798;-72
2021/01/13 05:20:27;;;;;;;18.00;14.23;;;3.50;99.90;;;;;;5036897;28;20437;-72
2021/01/13 05:22:54;;;;;;;17.70;15.43;;;3.40;99.90;;;;;;5036625;28;20484;-72
2021/01/13 05:25:53;;;;;;;22.03;15.40;;;3.40;99.90;;;;;;5040738;28;20409;-72
2021/01/13 05:28:21;;;;;;;19.90;15.27;;;3.40;99.90;;;;;;5036138;28;20463;-72
2021/01/13 05:30:57;;;;;;;18.93;13.67;;;3.40;99.90;;;;;;5036572;28;20402;-73
2021/01/13 05:33:24;;;;;;;21.13;14.07;;;3.40;99.90;;;;;;5034197;28;20421;-73
2021/01/13 05:35:53;;;;;;;24.20;15.73;;;3.40;99.90;;;;;;5033060;28;20977;-72
2021/01/13 05:38:44;;;;;;;24.43;14.27;;;3.40;99.90;;;;;;5029843;28;20517;-72
2021/01/13 05:41:14;;;;;;;21.43;14.93;;;3.50;99.90;;;;;;5033140;28;20398;-73
2021/01/13 05:43:47;;;;;;;24.97;14.70;;;3.40;99.90;;;;;;5034548;28;20536;-73
2021/01/13 05:46:18;;;;;;;15.80;13.10;;;3.40;99.90;;;;;;5032067;28;20431;-72
2021/01/13 05:48:50;;;;;;;17.50;14.00;;;3.30;99.90;;;;;;5035061;28;20407;-73
2021/01/13 05:51:25;;;;;;;19.30;14.10;;;3.40;99.90;;;;;;5034881;28;20471;-72
2021/01/13 05:53:51;;;;;;;17.23;14.17;;;3.40;99.90;;;;;;5029646;28;20813;-73
2021/01/13 05:56:18;;;;;;;18.20;13.43;;;3.40;99.90;;;;;;5035576;28;20441;-72
2021/01/13 05:58:43;;;;;;;15.83;13.00;;;3.40;99.90;;;;;;5035936;28;20401;-72
2021/01/13 06:01:32;;;;;;;19.23;14.40;;;3.50;99.90;;;;;;5034981;28;20484;-72
2021/01/13 06:03:58;;;;;;;16.57;14.10;;;3.50;99.90;;;;;;5035881;28;20258;-73
2021/01/13 06:06:27;;;;;;;18.43;14.33;;;3.50;99.90;;;;;;5035930;28;20544;-73
2021/01/13 06:08:54;;;;;;;22.37;15.30;;;3.50;99.90;;;;;;5035486;28;20473;-73
2021/01/13 06:11:23;;;;;;;18.30;15.00;;;3.40;99.90;;;;;;5024743;28;20994;-72
2021/01/13 06:13:50;;;;;;;16.27;14.50;;;3.50;99.90;;;;;;5024036;28;20534;-72
2021/01/13 06:16:16;;;;;;;18.70;13.50;;;3.50;99.90;;;;;;5026478;28;20462;-73
2021/01/13 06:18:43;;;;;;;18.30;14.90;;;3.60;99.90;;;;;;5032423;28;20418;-73
2021/01/13 06:21:11;;;;;;;24.30;14.23;;;3.60;99.90;;;;;;5040322;28;20419;-73
2021/01/13 06:23:50;;;;;;;21.60;13.90;;;3.60;99.90;;;;;;5036470;28;20426;-74
2021/01/13 06:26:17;;;;;;;18.70;14.70;;;3.60;99.90;;;;;;5044830;28;20491;-71
2021/01/13 06:29:01;;;;;;;22.90;15.27;;;3.60;99.90;;;;;;5048056;28;20430;-72
2021/01/13 06:31:28;;;;;;;20.43;14.27;;;3.60;99.90;;;;;;5032006;28;20497;-72
2021/01/13 06:34:02;;;;;;;19.80;14.97;;;3.60;99.90;;;;;;5025619;28;20433;-72
2021/01/13 06:36:53;;;;;;;21.43;15.73;;;3.70;99.90;;;;;;5035973;28;20443;-72
2021/01/13 06:39:18;;;;;;;20.47;15.20;;;3.60;99.90;;;;;;5035384;28;20421;-72
2021/01/13 06:41:49;;;;;;;25.07;16.90;;;3.60;99.90;;;;;;5033943;28;20453;-71
2021/01/13 06:44:16;;;;;;;21.83;15.87;;;3.60;99.90;;;;;;5034545;28;20671;-72
2021/01/13 06:46:42;;;;;;;26.80;17.93;;;3.70;99.90;;;;;;5034409;28;20459;-72
2021/01/13 06:49:18;;;;;;;20.57;16.70;;;3.70;99.90;;;;;;5028902;28;21639;-71
2021/01/13 06:51:48;;;;;;;21.73;16.63;;;3.70;99.90;;;;;;5028272;28;20448;-72
2021/01/13 06:54:21;;;;;;;21.17;17.47;;;3.70;99.90;;;;;;5028315;28;20417;-71
2021/01/13 06:56:48;;;;;;;24.13;16.47;;;3.70;99.90;;;;;;5032610;28;20441;-71
2021/01/13 06:59:15;;;;;;;23.50;17.20;;;3.80;99.90;;;;;;5034092;28;20451;-71
2021/01/13 07:01:57;;;;;;;26.63;18.67;;;3.80;99.90;;;;;;5034474;28;20452;-72
2021/01/13 07:04:25;;;;;;;27.90;18.60;;;3.80;99.90;;;;;;5029075;28;20459;-71
2021/01/13 07:07:02;;;;;;;19.73;16.37;;;3.80;99.90;;;;;;5033204;28;20461;-72
2021/01/13 07:09:45;;;;;;;27.43;16.30;;;3.80;99.90;;;;;;5033197;28;20418;-72
2021/01/13 07:12:14;;;;;;;24.20;17.67;;;3.80;99.90;;;;;;5027795;28;20436;-72
2021/01/13 07:14:44;;;;;;;20.83;16.50;;;3.80;99.90;;;;;;5033027;28;20425;-71
2021/01/13 07:17:16;;;;;;;22.80;16.33;;;3.80;99.90;;;;;;5033545;28;20525;-71
2021/01/13 07:19:51;;;;;;;21.30;17.70;;;3.80;99.90;;;;;;5029994;28;20429;-72
2021/01/13 07:22:19;;;;;;;23.80;15.93;;;3.80;99.90;;;;;;5030616;28;20418;-73
2021/01/13 07:24:46;;;;;;;18.63;15.17;;;3.90;99.90;;;;;;5031677;28;20428;-72
2021/01/13 07:27:13;;;;;;;19.20;14.93;;;3.90;99.90;;;;;;5033040;28;20508;-72
2021/01/13 07:29:39;;;;;;;18.20;14.33;;;3.90;99.90;;;;;;5033124;28;20431;-72
2021/01/13 07:32:07;;;;;;;20.90;14.73;;;3.90;99.90;;;;;;5032916;28;20510;-72
2021/01/13 07:34:35;;;;;;;26.90;15.73;;;3.90;99.90;;;;;;5032600;28;20458;-71
2021/01/13 07:37:07;;;;;;;22.33;14.90;;;3.80;99.90;;;;;;5024398;28;20445;-72
2021/01/13 07:40:10;;;;;;;17.60;13.90;;;3.90;99.90;;;;;;5031465;28;20453;-72
2021/01/13 07:42:44;;;;;;;19.33;14.23;;;3.90;99.90;;;;;;5031138;28;20440;-71
2021/01/13 07:45:19;;;;;;;23.07;14.97;;;3.80;99.90;;;;;;5030336;28;20476;-71
2021/01/13 07:47:56;;;;;;;25.50;14.20;;;3.80;99.90;;;;;;5029549;28;20464;-71
2021/01/13 07:50:23;;;;;;;20.30;14.17;;;3.80;99.90;;;;;;5025817;28;20411;-72
2021/01/13 07:52:50;;;;;;;29.07;15.33;;;3.80;99.90;;;;;;5029493;28;20915;-71
2021/01/13 07:55:16;;;;;;;22.00;15.40;;;3.80;99.90;;;;;;5032220;28;20439;-71
2021/01/13 07:57:56;;;;;;;17.93;14.67;;;3.80;99.90;;;;;;5032618;28;20433;-72
2021/01/13 08:00:36;;;;;;;23.13;16.33;;;3.90;99.90;;;;;;5033083;28;20596;-73
2021/01/13 08:03:39;;;;;;;22.97;14.60;;;3.90;99.90;;;;;;5031238;28;20480;-72
2021/01/13 08:06:32;;;;;;;21.97;15.93;;;3.90;99.90;;;;;;5032890;28;20853;-73
2021/01/13 08:09:21;;;;;;;21.57;15.57;;;3.90;99.90;;;;;;5029335;28;20456;-73
2021/01/13 08:12:13;;;;;;;21.40;14.83;;;3.90;99.90;;;;;;5031754;28;20821;-73
2021/01/13 08:14:56;;;;;;;21.23;14.70;;;3.90;99.90;;;;;;5033611;28;20511;-73
2021/01/13 08:17:40;;;;;;;22.40;16.73;;;3.90;99.90;;;;;;5041686;28;20445;-73
2021/01/13 08:20:29;;;;;;;24.20;16.23;;;3.90;99.90;;;;;;5033480;28;20433;-71
2021/01/13 08:23:26;;;;;;;30.03;16.17;;;3.90;99.90;;;;;;5031609;28;20517;-72
2021/01/13 08:25:57;;;;;;;22.57;14.70;;;3.90;99.90;;;;;;5037380;28;20521;-74
2021/01/13 08:28:24;;;;;;;23.40;14.90;;;3.90;99.90;;;;;;5034608;28;20475;-74
2021/01/13 08:30:51;;;;;;;20.37;14.90;;;4.00;99.90;;;;;;5037329;28;20475;-73
2021/01/13 08:33:25;;;;;;;22.00;15.53;;;3.90;99.90;;;;;;5036832;28;20921;-73
2021/01/13 08:35:57;;;;;;;21.40;14.23;;;3.90;99.90;;;;;;5037081;28;20495;-74
2021/01/13 08:38:23;;;;;;;23.20;14.70;;;3.90;99.90;;;;;;5035544;28;20531;-74
2021/01/13 08:40:49;;;;;;;19.60;13.77;;;3.90;99.90;;;;;;5039245;28;20460;-74
2021/01/13 08:43:17;;;;;;;20.03;15.63;;;3.90;99.90;;;;;;5038275;28;20415;-73
2021/01/13 08:45:50;;;;;;;20.70;15.77;;;3.90;99.90;;;;;;5036419;28;20441;-73
2021/01/13 08:48:18;;;;;;;18.07;14.40;;;3.90;99.90;;;;;;5020996;28;20460;-73
2021/01/13 08:51:04;;;;;;;22.93;14.87;;;3.90;99.90;;;;;;5035862;28;20467;-73
2021/01/13 08:53:31;;;;;;;20.70;15.87;;;3.90;99.90;;;;;;5035011;28;20495;-73
2021/01/13 08:55:57;;;;;;;19.67;15.40;;;3.80;99.90;;;;;;5036227;28;20973;-73
2021/01/13 08:58:32;;;;;;;21.80;15.10;;;3.80;99.90;;;;;;5037085;28;20510;-73
2021/01/13 09:01:06;;;;;;;19.40;14.97;;;3.90;99.90;;;;;;5036431;28;20640;-73
2021/01/13 09:03:39;;;;;;;25.80;15.60;;;3.90;99.90;;;;;;5036738;28;20412;-73
2021/01/13 09:06:17;;;;;;;22.03;15.70;;;4.00;99.90;;;;;;5036327;28;20953;-73
2021/01/13 09:08:53;;;;;;;19.27;15.07;;;4.00;99.90;;;;;;5036551;28;20423;-73
2021/01/13 09:11:33;;;;;;;19.93;14.77;;;3.90;99.90;;;;;;5036109;28;20427;-72
2021/01/13 09:14:21;;;;;;;21.30;14.70;;;4.00;99.90;;;;;;5036468;28;20419;-73
2021/01/13 09:16:57;;;;;;;22.83;16.00;;;4.00;99.90;;;;;;5036807;28;20523;-73
2021/01/13 09:19:38;;;;;;;62.37;15.60;;;3.90;99.90;;;;;;5036773;28;20408;-73
2021/01/13 09:22:06;;;;;;;27.67;16.30;;;3.90;99.90;;;;;;5035820;28;20797;-72
2021/01/13 09:24:56;;;;;;;22.30;16.30;;;3.80;99.90;;;;;;5036496;28;20441;-73
2021/01/13 09:27:34;;;;;;;24.90;15.70;;;3.90;99.90;;;;;;5036702;28;20467;-73
2021/01/13 09:30:08;;;;;;;20.97;14.77;;;3.90;99.90;;;;;;5036208;28;20429;-73
2021/01/13 09:32:51;;;;;;;29.60;16.10;;;3.90;99.90;;;;;;5035532;28;20909;-73
2021/01/13 09:35:34;;;;;;;21.53;14.50;;;4.00;99.90;;;;;;5035636;28;20437;-72
2021/01/13 09:38:04;;;;;;;18.50;14.67;;;4.00;99.90;;;;;;5034873;28;20511;-73
2021/01/13 09:40:50;;;;;;;20.17;15.40;;;4.00;99.90;;;;;;5036336;28;20416;-73
2021/01/13 09:43:38;;;;;;;20.00;15.40;;;4.10;99.90;;;;;;5033633;28;20531;-73
2021/01/13 09:46:06;;;;;;;21.87;14.40;;;4.10;99.90;;;;;;5034378;28;20443;-74
2021/01/13 09:48:34;;;;;;;17.77;14.50;;;4.30;99.90;;;;;;5036245;28;20974;-74
2021/01/13 09:51:09;;;;;;;21.17;14.80;;;4.20;99.90;;;;;;5035868;28;20524;-73
2021/01/13 09:53:46;;;;;;;23.03;14.83;;;4.30;99.90;;;;;;5035821;28;20797;-73
2021/01/13 09:56:11;;;;;;;19.73;15.00;;;4.30;99.90;;;;;;5033774;28;20483;-74
2021/01/13 09:58:45;;;;;;;20.10;15.03;;;4.30;99.90;;;;;;5035759;28;20456;-74
2021/01/13 10:01:15;;;;;;;24.47;15.90;;;4.40;99.90;;;;;;5037512;28;20187;-75
2021/01/13 10:03:43;;;;;;;19.33;13.80;;;4.40;99.90;;;;;;5039413;28;20421;-75
2021/01/13 10:06:32;;;;;;;23.87;14.70;;;4.50;99.90;;;;;;5036353;28;20433;-74
2021/01/13 10:09:07;;;;;;;18.90;15.97;;;4.50;99.90;;;;;;5036980;28;20878;-74
2021/01/13 10:11:33;;;;;;;20.13;14.03;;;4.40;99.90;;;;;;5035969;28;20418;-73
2021/01/13 10:14:04;;;;;;;19.50;15.37;;;4.40;99.90;;;;;;5035220;28;20585;-74
2021/01/13 10:16:30;;;;;;;22.07;14.80;;;4.40;99.90;;;;;;5035524;28;20438;-72
2021/01/13 10:19:04;;;;;;;20.27;13.23;;;4.40;99.90;;;;;;5035039;28;20493;-73
2021/01/13 10:21:36;;;;;;;20.27;13.97;;;4.40;99.90;;;;;;5034441;28;20783;-73
2021/01/13 10:24:06;;;;;;;18.87;14.00;;;4.40;99.90;;;;;;5034747;28;20924;-73
2021/01/13 10:26:38;;;;;;;17.43;13.50;;;4.50;99.90;;;;;;5034818;28;20956;-73
2021/01/13 10:29:04;;;;;;;16.93;13.60;;;4.50;99.90;;;;;;5034605;28;20636;-73
2021/01/13 10:31:30;;;;;;;18.60;13.50;;;4.50;99.90;;;;;;5034408;28;20507;-73
2021/01/13 10:33:57;;;;;;;19.17;13.20;;;4.60;99.90;;;;;;5033982;28;20432;-73
2021/01/13 10:36:32;;;;;;;16.77;13.30;;;4.60;99.90;;;;;;5033367;28;20447;-73
2021/01/13 10:38:59;;;;;;;15.57;12.90;;;4.70;99.90;;;;;;5034220;28;20417;-74
2021/01/13 10:41:54;;;;;;;16.90;12.50;;;4.70;99.90;;;;;;5035158;28;20415;-73
2021/01/13 10:44:29;;;;;;;15.67;13.40;;;4.70;99.90;;;;;;4961656;28;20537;-72
2021/01/13 10:46:55;;;;;;;18.00;11.70;;;4.80;99.90;;;;;;4952857;28;20480;-72
2021/01/13 10:49:34;;;;;;;15.97;11.80;;;4.70;99.90;;;;;;4953960;29;20855;-73
2021/01/13 10:52:12;;;;;;;17.67;13.10;;;4.70;99.90;;;;;;4953659;29;20181;-73
2021/01/13 10:54:42;;;;;;;18.90;12.53;;;4.50;99.90;;;;;;4961399;28;20479;-72
2021/01/13 10:57:10;;;;;;;13.27;11.50;;;4.60;99.90;;;;;;4953729;28;20440;-73
2021/01/13 10:59:37;;;;;;;16.70;13.00;;;4.60;99.90;;;;;;4953524;28;20429;-72
2021/01/13 11:02:08;;;;;;;15.60;12.50;;;4.60;99.90;;;;;;4953089;29;20442;-73
2021/01/13 11:04:33;;;;;;;19.53;12.70;;;4.70;99.90;;;;;;4954619;28;20485;-73
2021/01/13 11:07:17;;;;;;;16.83;13.17;;;4.70;99.90;;;;;;4953249;28;20844;-74
2021/01/13 11:09:47;;;;;;;18.17;13.10;;;4.70;99.90;;;;;;4952635;28;20278;-72
2021/01/13 11:12:21;;;;;;;17.97;12.83;;;4.60;99.90;;;;;;4935058;29;20510;-74
2021/01/13 11:14:49;;;;;;;24.80;13.57;;;4.70;99.90;;;;;;4956912;28;20512;-72
2021/01/13 11:17:17;;;;;;;15.80;13.37;;;4.70;99.90;;;;;;4957014;28;20455;-72
2021/01/13 11:19:46;;;;;;;21.27;14.17;;;4.70;99.90;;;;;;4960618;28;20453;-72
2021/01/13 11:22:13;;;;;;;18.10;13.37;;;4.70;99.90;;;;;;5033190;28;20408;-72
2021/01/13 11:24:45;;;;;;;21.00;13.23;;;4.70;99.90;;;;;;5030005;28;20760;-72
2021/01/13 11:27:20;;;;;;;23.13;14.03;;;4.80;99.90;;;;;;5032383;28;20465;-72
2021/01/13 11:29:52;;;;;;;13.90;12.30;;;4.80;99.90;;;;;;5029534;28;20959;-72
2021/01/13 11:32:19;;;;;;;18.40;13.00;;;4.80;99.90;;;;;;5024842;28;20432;-73
2021/01/13 11:34:49;;;;;;;21.30;13.67;;;4.90;99.90;;;;;;5031646;28;20453;-73
2021/01/13 11:37:18;;;;;;;16.87;13.70;;;4.90;99.90;;;;;;5038521;28;20452;-74
2021/01/13 11:40:02;;;;;;;18.60;14.10;;;4.90;99.90;;;;;;5043598;28;20408;-73
2021/01/13 11:43:05;;;;;;;22.57;12.50;;;4.90;99.90;;;;;;5023230;28;20484;-73
2021/01/13 11:45:37;;;;;;;18.37;12.60;;;5.00;99.90;;;;;;5032149;28;20787;-73
2021/01/13 11:48:07;;;;;;;18.17;12.30;;;5.00;99.90;;;;;;5032721;28;20464;-73
2021/01/13 11:50:38;;;;;;;18.13;12.33;;;5.10;99.90;;;;;;5033079;28;20929;-72
2021/01/13 11:53:06;;;;;;;18.43;12.27;;;5.10;99.90;;;;;;5031898;28;20441;-73
2021/01/13 11:55:33;;;;;;;18.20;12.07;;;5.10;99.90;;;;;;5033246;28;20428;-72
2021/01/13 11:57:59;;;;;;;18.57;12.30;;;5.10;99.90;;;;;;5029826;28;20884;-73
2021/01/13 12:00:29;;;;;;;17.83;11.37;;;5.20;99.90;;;;;;5029502;28;20469;-72
2021/01/13 12:02:57;;;;;;;19.70;12.03;;;5.10;99.90;;;;;;5032269;28;20428;-73
2021/01/13 12:05:23;;;;;;;19.70;14.40;;;5.10;99.90;;;;;;5030715;28;20430;-73
2021/01/13 12:07:59;;;;;;;13.53;11.20;;;5.20;99.90;;;;;;5031309;28;20526;-73
2021/01/13 12:10:30;;;;;;;15.20;10.67;;;5.20;99.90;;;;;;5029592;28;20864;-74
2021/01/13 12:13:19;;;;;;;16.77;11.20;;;5.10;99.90;;;;;;5031745;28;20418;-73
2021/01/13 12:15:54;;;;;;;17.00;10.93;;;5.10;99.90;;;;;;5031536;28;20440;-73
2021/01/13 12:18:28;;;;;;;15.30;10.33;;;5.00;99.90;;;;;;5031233;28;20425;-73
2021/01/13 12:20:59;;;;;;;14.70;11.10;;;5.00;99.90;;;;;;5031559;28;20546;-73
2021/01/13 12:23:36;;;;;;;22.70;12.30;;;5.00;99.90;;;;;;5029026;28;20443;-73
2021/01/13 12:26:19;;;;;;;17.93;10.63;;;4.90;99.90;;;;;;5061666;28;20531;-72
2021/01/13 12:28:50;;;;;;;18.30;10.40;;;5.00;99.90;;;;;;5031096;28;20439;-73
2021/01/13 12:31:20;;;;;;;13.20;9.90;;;5.10;99.90;;;;;;5030106;28;20418;-73
2021/01/13 12:33:54;;;;;;;14.53;10.67;;;5.00;99.90;;;;;;5031173;28;21007;-72
2021/01/13 12:36:26;;;;;;;13.70;10.43;;;5.00;99.90;;;;;;5031684;28;20460;-72
2021/01/13 12:38:56;;;;;;;15.80;10.80;;;5.10;99.90;;;;;;5032445;28;20419;-73
2021/01/13 12:41:26;;;;;;;14.40;9.60;;;5.20;99.90;;;;;;5033812;28;20509;-73
2021/01/13 12:43:53;;;;;;;25.37;10.70;;;5.20;99.90;;;;;;5033076;28;20436;-73
2021/01/13 12:46:32;;;;;;;17.30;10.83;;;5.30;99.90;;;;;;5032943;28;21039;-73
2021/01/13 12:49:00;;;;;;;12.40;9.70;;;5.30;99.90;;;;;;5031478;28;20917;-72
2021/01/13 12:51:25;;;;;;;14.63;11.43;;;5.20;99.90;;;;;;5027907;28;20409;-73
2021/01/13 12:53:58;;;;;;;15.30;10.10;;;5.20;99.90;;;;;;5031292;28;20488;-73
2021/01/13 12:56:30;;;;;;;17.33;10.77;;;5.10;99.90;;;;;;5030581;28;20286;-73
2021/01/13 12:58:58;;;;;;;15.27;9.10;;;5.10;99.90;;;;;;5030514;28;20477;-73
2021/01/13 13:01:25;;;;;;;11.00;9.77;;;5.20;99.90;;;;;;5031134;28;20781;-72
2021/01/13 13:03:51;;;;;;;10.87;8.90;;;5.30;99.90;;;;;;5031131;28;20802;-72
2021/01/13 13:06:28;;;;;;;12.10;8.30;;;5.20;99.90;;;;;;5030748;28;20429;-72
2021/01/13 13:08:55;;;;;;;13.57;8.30;;;5.10;99.90;;;;;;5032286;28;20417;-73
2021/01/13 13:11:21;;;;;;;12.27;9.60;;;5.10;99.90;;;;;;5037029;28;20439;-73